sensor_id;sensor_type;location;lat;lon;timestamp;P1;durP1;ratioP1;P2;durP2;ratioP2
73575;SDS011;61859;49.204;8.140;2023-04-03T00:01:22;2.67;;;1.27;;
73575;SDS011;61859;49.204;8.140;2023-04-03T00:03:48;1.93;;;1.60;;
73575;SDS011;61859;49.204;8.140;2023-04-03T00:06:14;2.63;;;1.67;;
73575;SDS011;61859;49.204;8.140;2023-04-03T00:08:40;1.63;;;1.30;;
73575;SDS011;61859;49.204;8.140;2023-04-03T00:11:05;3.13;;;1.50;;
73575;SDS011;61859;49.204;8.140;2023-04-03T00:13:31;4.43;;;1.67;;
73575;SDS011;61859;49.204;8.140;2023-04-03T00:15:58;1.70;;;1.60;;
73575;SDS011;61859;49.204;8.140;2023-04-03T00:18:23;2.10;;;1.60;;
73575;SDS011;61859;49.204;8.140;2023-04-03T00:20:49;3.23;;;1.83;;
73575;SDS011;61859;49.204;8.140;2023-04-03T00:23:16;2.07;;;1.60;;
73575;SDS011;61859;49.204;8.140;2023-04-03T00:25:42;2.30;;;1.73;;
73575;SDS011;61859;49.204;8.140;2023-04-03T00:28:08;3.27;;;1.70;;
73575;SDS011;61859;49.204;8.140;2023-04-03T00:30:34;3.00;;;1.73;;
73575;SDS011;61859;49.204;8.140;2023-04-03T00:33:00;2.13;;;1.73;;
73575;SDS011;61859;49.204;8.140;2023-04-03T00:35:25;2.77;;;1.67;;
73575;SDS011;61859;49.204;8.140;2023-04-03T00:37:52;2.13;;;1.70;;
73575;SDS011;61859;49.204;8.140;2023-04-03T00:40:18;2.80;;;1.80;;
73575;SDS011;61859;49.204;8.140;2023-04-03T00:42:46;3.13;;;1.90;;
73575;SDS011;61859;49.204;8.140;2023-04-03T00:48:06;1.90;;;1.60;;
73575;SDS011;61859;49.204;8.140;2023-04-03T00:50:35;2.97;;;1.80;;
73575;SDS011;61859;49.204;8.140;2023-04-03T00:53:03;1.67;;;1.57;;
73575;SDS011;61859;49.204;8.140;2023-04-03T00:55:31;2.93;;;1.60;;
73575;SDS011;61859;49.204;8.140;2023-04-03T00:57:57;2.63;;;1.70;;
73575;SDS011;61859;49.204;8.140;2023-04-03T01:00:25;2.70;;;1.80;;
73575;SDS011;61859;49.204;8.140;2023-04-03T01:02:51;1.60;;;1.50;;
73575;SDS011;61859;49.204;8.140;2023-04-03T01:05:18;3.00;;;1.90;;
73575;SDS011;61859;49.204;8.140;2023-04-03T01:07:45;2.80;;;1.87;;
73575;SDS011;61859;49.204;8.140;2023-04-03T01:10:12;2.67;;;1.87;;
73575;SDS011;61859;49.204;8.140;2023-04-03T01:12:42;2.30;;;2.10;;
73575;SDS011;61859;49.204;8.140;2023-04-03T01:17:47;2.63;;;2.10;;
73575;SDS011;61859;49.204;8.140;2023-04-03T01:22:56;2.20;;;1.97;;
73575;SDS011;61859;49.204;8.140;2023-04-03T01:25:30;4.93;;;1.90;;
73575;SDS011;61859;49.204;8.140;2023-04-03T01:27:57;2.20;;;1.90;;
73575;SDS011;61859;49.204;8.140;2023-04-03T01:30:24;3.13;;;2.03;;
73575;SDS011;61859;49.204;8.140;2023-04-03T01:32:55;2.43;;;1.90;;
73575;SDS011;61859;49.204;8.140;2023-04-03T01:35:20;2.10;;;1.87;;
73575;SDS011;61859;49.204;8.140;2023-04-03T01:37:46;2.30;;;1.83;;
73575;SDS011;61859;49.204;8.140;2023-04-03T01:40:12;2.53;;;1.40;;
73575;SDS011;61859;49.204;8.140;2023-04-03T01:42:37;2.63;;;1.83;;
73575;SDS011;61859;49.204;8.140;2023-04-03T01:45:03;3.10;;;1.63;;
73575;SDS011;61859;49.204;8.140;2023-04-03T01:47:29;2.10;;;1.90;;
73575;SDS011;61859;49.204;8.140;2023-04-03T01:49:54;2.10;;;1.80;;
73575;SDS011;61859;49.204;8.140;2023-04-03T01:52:20;2.97;;;2.10;;
73575;SDS011;61859;49.204;8.140;2023-04-03T01:54:46;3.10;;;1.97;;
73575;SDS011;61859;49.204;8.140;2023-04-03T01:57:11;2.13;;;1.80;;
73575;SDS011;61859;49.204;8.140;2023-04-03T01:59:38;2.53;;;1.80;;
73575;SDS011;61859;49.204;8.140;2023-04-03T02:02:04;2.30;;;1.73;;
73575;SDS011;61859;49.204;8.140;2023-04-03T02:04:29;1.60;;;1.50;;
73575;SDS011;61859;49.204;8.140;2023-04-03T02:06:55;1.93;;;1.83;;
73575;SDS011;61859;49.204;8.140;2023-04-03T02:09:20;2.07;;;1.83;;
73575;SDS011;61859;49.204;8.140;2023-04-03T02:11:46;2.30;;;2.10;;
73575;SDS011;61859;49.204;8.140;2023-04-03T02:14:11;2.23;;;1.90;;
73575;SDS011;61859;49.204;8.140;2023-04-03T02:16:37;3.03;;;1.80;;
73575;SDS011;61859;49.204;8.140;2023-04-03T02:19:03;2.30;;;2.00;;
73575;SDS011;61859;49.204;8.140;2023-04-03T02:21:28;1.83;;;1.60;;
73575;SDS011;61859;49.204;8.140;2023-04-03T02:23:54;3.23;;;2.20;;
73575;SDS011;61859;49.204;8.140;2023-04-03T02:26:19;2.43;;;1.73;;
73575;SDS011;61859;49.204;8.140;2023-04-03T02:28:45;4.63;;;1.83;;
73575;SDS011;61859;49.204;8.140;2023-04-03T02:31:12;2.83;;;1.83;;
73575;SDS011;61859;49.204;8.140;2023-04-03T02:33:37;1.97;;;1.87;;
73575;SDS011;61859;49.204;8.140;2023-04-03T02:36:04;1.73;;;1.63;;
73575;SDS011;61859;49.204;8.140;2023-04-03T02:38:30;3.50;;;1.70;;
73575;SDS011;61859;49.204;8.140;2023-04-03T02:41:03;2.10;;;1.90;;
73575;SDS011;61859;49.204;8.140;2023-04-03T02:43:30;2.00;;;1.63;;
73575;SDS011;61859;49.204;8.140;2023-04-03T02:45:56;2.30;;;2.10;;
73575;SDS011;61859;49.204;8.140;2023-04-03T02:48:22;2.93;;;2.37;;
73575;SDS011;61859;49.204;8.140;2023-04-03T02:50:48;3.43;;;1.90;;
73575;SDS011;61859;49.204;8.140;2023-04-03T02:53:14;2.80;;;1.87;;
73575;SDS011;61859;49.204;8.140;2023-04-03T02:55:40;2.97;;;2.23;;
73575;SDS011;61859;49.204;8.140;2023-04-03T02:58:06;3.40;;;2.27;;
73575;SDS011;61859;49.204;8.140;2023-04-03T03:00:31;2.63;;;2.13;;
73575;SDS011;61859;49.204;8.140;2023-04-03T03:02:57;2.60;;;2.40;;
73575;SDS011;61859;49.204;8.140;2023-04-03T03:05:23;2.53;;;2.30;;
73575;SDS011;61859;49.204;8.140;2023-04-03T03:07:49;3.23;;;2.93;;
73575;SDS011;61859;49.204;8.140;2023-04-03T03:10:14;2.57;;;2.30;;
73575;SDS011;61859;49.204;8.140;2023-04-03T03:12:40;2.50;;;2.30;;
73575;SDS011;61859;49.204;8.140;2023-04-03T03:15:06;3.53;;;2.30;;
73575;SDS011;61859;49.204;8.140;2023-04-03T03:17:32;3.33;;;2.80;;
73575;SDS011;61859;49.204;8.140;2023-04-03T03:19:57;3.37;;;2.13;;
73575;SDS011;61859;49.204;8.140;2023-04-03T03:22:23;3.87;;;2.60;;
73575;SDS011;61859;49.204;8.140;2023-04-03T03:24:49;4.93;;;2.60;;
73575;SDS011;61859;49.204;8.140;2023-04-03T03:27:14;3.27;;;2.53;;
73575;SDS011;61859;49.204;8.140;2023-04-03T03:29:41;4.03;;;2.40;;
73575;SDS011;61859;49.204;8.140;2023-04-03T03:32:06;4.03;;;2.73;;
73575;SDS011;61859;49.204;8.140;2023-04-03T03:34:32;3.23;;;2.70;;
73575;SDS011;61859;49.204;8.140;2023-04-03T03:36:57;2.77;;;2.50;;
73575;SDS011;61859;49.204;8.140;2023-04-03T03:39:23;3.17;;;2.50;;
73575;SDS011;61859;49.204;8.140;2023-04-03T03:41:48;3.33;;;2.83;;
73575;SDS011;61859;49.204;8.140;2023-04-03T03:44:14;3.90;;;2.43;;
73575;SDS011;61859;49.204;8.140;2023-04-03T03:46:40;4.20;;;3.00;;
73575;SDS011;61859;49.204;8.140;2023-04-03T03:49:05;4.43;;;2.37;;
73575;SDS011;61859;49.204;8.140;2023-04-03T03:51:31;2.97;;;2.50;;
73575;SDS011;61859;49.204;8.140;2023-04-03T03:53:57;2.73;;;2.53;;
73575;SDS011;61859;49.204;8.140;2023-04-03T03:56:22;3.67;;;2.53;;
73575;SDS011;61859;49.204;8.140;2023-04-03T03:58:48;3.57;;;2.23;;
73575;SDS011;61859;49.204;8.140;2023-04-03T04:01:14;3.90;;;2.30;;
73575;SDS011;61859;49.204;8.140;2023-04-03T04:03:40;4.23;;;2.33;;
73575;SDS011;61859;49.204;8.140;2023-04-03T04:06:06;1.97;;;1.77;;
73575;SDS011;61859;49.204;8.140;2023-04-03T04:08:31;2.53;;;2.33;;
73575;SDS011;61859;49.204;8.140;2023-04-03T04:10:57;3.77;;;2.67;;
73575;SDS011;61859;49.204;8.140;2023-04-03T04:13:23;2.10;;;1.90;;
73575;SDS011;61859;49.204;8.140;2023-04-03T04:15:49;2.87;;;2.23;;
73575;SDS011;61859;49.204;8.140;2023-04-03T04:18:15;2.97;;;2.50;;
73575;SDS011;61859;49.204;8.140;2023-04-03T04:20:40;2.73;;;2.30;;
73575;SDS011;61859;49.204;8.140;2023-04-03T04:23:06;2.40;;;2.10;;
73575;SDS011;61859;49.204;8.140;2023-04-03T04:25:31;4.23;;;2.10;;
73575;SDS011;61859;49.204;8.140;2023-04-03T04:27:57;2.07;;;1.87;;
73575;SDS011;61859;49.204;8.140;2023-04-03T04:30:23;4.00;;;2.30;;
73575;SDS011;61859;49.204;8.140;2023-04-03T04:32:48;3.80;;;2.40;;
73575;SDS011;61859;49.204;8.140;2023-04-03T04:35:14;2.30;;;2.10;;
73575;SDS011;61859;49.204;8.140;2023-04-03T04:37:40;4.17;;;2.50;;
73575;SDS011;61859;49.204;8.140;2023-04-03T04:40:06;2.30;;;2.10;;
73575;SDS011;61859;49.204;8.140;2023-04-03T04:42:32;3.63;;;2.07;;
73575;SDS011;61859;49.204;8.140;2023-04-03T04:44:57;3.63;;;2.23;;
73575;SDS011;61859;49.204;8.140;2023-04-03T04:47:23;3.50;;;2.43;;
73575;SDS011;61859;49.204;8.140;2023-04-03T04:49:48;2.47;;;2.27;;
73575;SDS011;61859;49.204;8.140;2023-04-03T04:52:14;2.80;;;2.50;;
73575;SDS011;61859;49.204;8.140;2023-04-03T04:54:40;4.03;;;2.40;;
73575;SDS011;61859;49.204;8.140;2023-04-03T04:57:05;4.03;;;2.60;;
73575;SDS011;61859;49.204;8.140;2023-04-03T04:59:31;3.67;;;2.57;;
73575;SDS011;61859;49.204;8.140;2023-04-03T05:01:56;3.20;;;2.40;;
73575;SDS011;61859;49.204;8.140;2023-04-03T05:04:22;4.90;;;2.73;;
73575;SDS011;61859;49.204;8.140;2023-04-03T05:06:47;2.57;;;2.37;;
73575;SDS011;61859;49.204;8.140;2023-04-03T05:09:13;3.33;;;2.70;;
73575;SDS011;61859;49.204;8.140;2023-04-03T05:11:38;4.40;;;2.87;;
73575;SDS011;61859;49.204;8.140;2023-04-03T05:14:04;4.37;;;2.87;;
73575;SDS011;61859;49.204;8.140;2023-04-03T05:16:32;2.70;;;2.50;;
73575;SDS011;61859;49.204;8.140;2023-04-03T05:18:58;4.33;;;2.73;;
73575;SDS011;61859;49.204;8.140;2023-04-03T05:21:24;3.17;;;2.80;;
73575;SDS011;61859;49.204;8.140;2023-04-03T05:23:51;3.10;;;2.90;;
73575;SDS011;61859;49.204;8.140;2023-04-03T05:26:17;3.30;;;2.67;;
73575;SDS011;61859;49.204;8.140;2023-04-03T05:28:42;4.33;;;2.90;;
73575;SDS011;61859;49.204;8.140;2023-04-03T05:31:08;3.73;;;2.47;;
73575;SDS011;61859;49.204;8.140;2023-04-03T05:33:33;3.43;;;2.90;;
73575;SDS011;61859;49.204;8.140;2023-04-03T05:36:06;3.10;;;2.67;;
73575;SDS011;61859;49.204;8.140;2023-04-03T05:38:32;2.70;;;2.50;;
73575;SDS011;61859;49.204;8.140;2023-04-03T05:40:57;3.13;;;2.40;;
73575;SDS011;61859;49.204;8.140;2023-04-03T05:43:23;2.97;;;2.67;;
73575;SDS011;61859;49.204;8.140;2023-04-03T05:45:49;3.37;;;2.70;;
73575;SDS011;61859;49.204;8.140;2023-04-03T05:48:15;4.37;;;2.77;;
73575;SDS011;61859;49.204;8.140;2023-04-03T05:50:40;6.20;;;2.80;;
73575;SDS011;61859;49.204;8.140;2023-04-03T05:53:07;4.67;;;2.90;;
73575;SDS011;61859;49.204;8.140;2023-04-03T05:55:43;3.17;;;2.70;;
73575;SDS011;61859;49.204;8.140;2023-04-03T05:58:08;6.33;;;2.87;;
73575;SDS011;61859;49.204;8.140;2023-04-03T06:00:34;3.57;;;2.83;;
73575;SDS011;61859;49.204;8.140;2023-04-03T06:02:59;3.13;;;2.63;;
73575;SDS011;61859;49.204;8.140;2023-04-03T06:05:25;3.20;;;2.83;;
73575;SDS011;61859;49.204;8.140;2023-04-03T06:07:50;3.63;;;2.60;;
73575;SDS011;61859;49.204;8.140;2023-04-03T06:10:16;5.07;;;2.80;;
73575;SDS011;61859;49.204;8.140;2023-04-03T06:12:42;6.17;;;2.90;;
73575;SDS011;61859;49.204;8.140;2023-04-03T06:15:08;5.47;;;3.00;;
73575;SDS011;61859;49.204;8.140;2023-04-03T06:17:35;2.37;;;2.17;;
73575;SDS011;61859;49.204;8.140;2023-04-03T06:20:01;2.60;;;2.40;;
73575;SDS011;61859;49.204;8.140;2023-04-03T06:22:28;4.17;;;2.40;;
73575;SDS011;61859;49.204;8.140;2023-04-03T06:24:55;2.67;;;1.97;;
73575;SDS011;61859;49.204;8.140;2023-04-03T06:27:21;4.63;;;3.00;;
73575;SDS011;61859;49.204;8.140;2023-04-03T06:29:47;2.73;;;2.43;;
73575;SDS011;61859;49.204;8.140;2023-04-03T06:32:13;3.93;;;2.53;;
73575;SDS011;61859;49.204;8.140;2023-04-03T06:34:39;2.50;;;2.30;;
73575;SDS011;61859;49.204;8.140;2023-04-03T06:37:05;2.13;;;1.90;;
73575;SDS011;61859;49.204;8.140;2023-04-03T06:39:31;2.90;;;2.60;;
73575;SDS011;61859;49.204;8.140;2023-04-03T06:41:57;5.17;;;2.80;;
73575;SDS011;61859;49.204;8.140;2023-04-03T06:44:23;8.53;;;2.90;;
73575;SDS011;61859;49.204;8.140;2023-04-03T06:46:48;2.60;;;2.40;;
73575;SDS011;61859;49.204;8.140;2023-04-03T06:49:14;2.83;;;2.40;;
73575;SDS011;61859;49.204;8.140;2023-04-03T06:51:40;4.13;;;2.93;;
73575;SDS011;61859;49.204;8.140;2023-04-03T06:54:06;4.37;;;2.33;;
73575;SDS011;61859;49.204;8.140;2023-04-03T06:56:33;2.37;;;2.17;;
73575;SDS011;61859;49.204;8.140;2023-04-03T06:58:59;3.10;;;2.40;;
73575;SDS011;61859;49.204;8.140;2023-04-03T07:01:26;2.73;;;2.13;;
73575;SDS011;61859;49.204;8.140;2023-04-03T07:03:53;2.63;;;2.10;;
73575;SDS011;61859;49.204;8.140;2023-04-03T07:06:19;3.83;;;2.30;;
73575;SDS011;61859;49.204;8.140;2023-04-03T07:08:45;6.47;;;2.37;;
73575;SDS011;61859;49.204;8.140;2023-04-03T07:11:13;2.53;;;2.10;;
73575;SDS011;61859;49.204;8.140;2023-04-03T07:13:38;3.33;;;2.30;;
73575;SDS011;61859;49.204;8.140;2023-04-03T07:16:04;2.97;;;2.67;;
73575;SDS011;61859;49.204;8.140;2023-04-03T07:18:31;2.50;;;2.10;;
73575;SDS011;61859;49.204;8.140;2023-04-03T07:20:57;4.00;;;2.60;;
73575;SDS011;61859;49.204;8.140;2023-04-03T07:23:23;4.97;;;2.37;;
73575;SDS011;61859;49.204;8.140;2023-04-03T07:25:50;2.87;;;2.20;;
73575;SDS011;61859;49.204;8.140;2023-04-03T07:28:16;4.07;;;2.80;;
73575;SDS011;61859;49.204;8.140;2023-04-03T07:33:11;3.20;;;2.30;;
73575;SDS011;61859;49.204;8.140;2023-04-03T07:35:38;4.87;;;2.93;;
73575;SDS011;61859;49.204;8.140;2023-04-03T07:38:04;3.73;;;2.27;;
73575;SDS011;61859;49.204;8.140;2023-04-03T07:40:30;2.90;;;2.00;;
73575;SDS011;61859;49.204;8.140;2023-04-03T07:42:56;3.10;;;2.13;;
73575;SDS011;61859;49.204;8.140;2023-04-03T07:45:22;4.47;;;2.20;;
73575;SDS011;61859;49.204;8.140;2023-04-03T07:47:47;2.67;;;2.17;;
73575;SDS011;61859;49.204;8.140;2023-04-03T07:50:13;2.20;;;2.00;;
73575;SDS011;61859;49.204;8.140;2023-04-03T07:52:39;4.03;;;1.90;;
73575;SDS011;61859;49.204;8.140;2023-04-03T07:55:05;2.00;;;1.80;;
73575;SDS011;61859;49.204;8.140;2023-04-03T07:57:31;1.80;;;1.70;;
73575;SDS011;61859;49.204;8.140;2023-04-03T07:59:57;3.70;;;1.73;;
73575;SDS011;61859;49.204;8.140;2023-04-03T08:02:22;2.43;;;1.80;;
73575;SDS011;61859;49.204;8.140;2023-04-03T08:04:47;2.40;;;1.77;;
73575;SDS011;61859;49.204;8.140;2023-04-03T08:07:13;4.23;;;1.70;;
73575;SDS011;61859;49.204;8.140;2023-04-03T08:09:38;3.23;;;1.90;;
73575;SDS011;61859;49.204;8.140;2023-04-03T08:12:04;4.00;;;2.00;;
73575;SDS011;61859;49.204;8.140;2023-04-03T08:14:30;4.00;;;2.10;;
73575;SDS011;61859;49.204;8.140;2023-04-03T08:16:59;2.10;;;1.40;;
73575;SDS011;61859;49.204;8.140;2023-04-03T08:19:25;1.77;;;1.57;;
73575;SDS011;61859;49.204;8.140;2023-04-03T08:21:51;1.30;;;1.20;;
73575;SDS011;61859;49.204;8.140;2023-04-03T08:24:18;6.70;;;1.60;;
73575;SDS011;61859;49.204;8.140;2023-04-03T08:26:43;3.93;;;2.20;;
73575;SDS011;61859;49.204;8.140;2023-04-03T08:29:09;4.13;;;1.53;;
73575;SDS011;61859;49.204;8.140;2023-04-03T08:31:34;3.07;;;1.80;;
73575;SDS011;61859;49.204;8.140;2023-04-03T08:34:00;3.10;;;1.93;;
73575;SDS011;61859;49.204;8.140;2023-04-03T08:36:26;11.10;;;2.47;;
73575;SDS011;61859;49.204;8.140;2023-04-03T08:38:53;7.70;;;2.17;;
73575;SDS011;61859;49.204;8.140;2023-04-03T08:46:35;1.70;;;1.40;;
73575;SDS011;61859;49.204;8.140;2023-04-03T08:49:35;2.73;;;1.60;;
73575;SDS011;61859;49.204;8.140;2023-04-03T08:52:45;1.57;;;1.27;;
73575;SDS011;61859;49.204;8.140;2023-04-03T08:55:24;2.10;;;0.80;;
73575;SDS011;61859;49.204;8.140;2023-04-03T08:58:03;1.97;;;1.13;;
73575;SDS011;61859;49.204;8.140;2023-04-03T09:03:14;3.47;;;1.20;;
73575;SDS011;61859;49.204;8.140;2023-04-03T09:08:32;2.50;;;1.57;;
73575;SDS011;61859;49.204;8.140;2023-04-03T09:11:26;3.50;;;1.07;;
73575;SDS011;61859;49.204;8.140;2023-04-03T09:14:02;1.73;;;1.20;;
73575;SDS011;61859;49.204;8.140;2023-04-03T09:22:18;1.83;;;1.10;;
73575;SDS011;61859;49.204;8.140;2023-04-03T09:24:47;1.23;;;0.87;;
73575;SDS011;61859;49.204;8.140;2023-04-03T09:27:23;3.50;;;1.13;;
73575;SDS011;61859;49.204;8.140;2023-04-03T09:29:49;1.30;;;1.20;;
73575;SDS011;61859;49.204;8.140;2023-04-03T09:34:47;5.20;;;1.70;;
73575;SDS011;61859;49.204;8.140;2023-04-03T09:37:32;4.07;;;1.00;;
73575;SDS011;61859;49.204;8.140;2023-04-03T09:40:01;1.07;;;0.90;;
73575;SDS011;61859;49.204;8.140;2023-04-03T09:42:26;3.67;;;1.10;;
73575;SDS011;61859;49.204;8.140;2023-04-03T09:44:56;3.47;;;1.40;;
73575;SDS011;61859;49.204;8.140;2023-04-03T09:47:24;2.67;;;1.10;;
73575;SDS011;61859;49.204;8.140;2023-04-03T09:52:39;1.30;;;0.97;;
73575;SDS011;61859;49.204;8.140;2023-04-03T09:55:16;3.40;;;1.03;;
73575;SDS011;61859;49.204;8.140;2023-04-03T09:57:46;2.10;;;0.67;;
73575;SDS011;61859;49.204;8.140;2023-04-03T10:03:23;3.23;;;0.97;;
73575;SDS011;61859;49.204;8.140;2023-04-03T10:06:00;2.07;;;0.87;;
73575;SDS011;61859;49.204;8.140;2023-04-03T10:08:31;2.00;;;0.93;;
73575;SDS011;61859;49.204;8.140;2023-04-03T10:11:06;1.53;;;0.83;;
73575;SDS011;61859;49.204;8.140;2023-04-03T10:13:42;1.67;;;1.03;;
73575;SDS011;61859;49.204;8.140;2023-04-03T10:16:17;1.47;;;0.90;;
73575;SDS011;61859;49.204;8.140;2023-04-03T10:18:46;3.73;;;1.00;;
73575;SDS011;61859;49.204;8.140;2023-04-03T10:21:33;2.87;;;0.90;;
73575;SDS011;61859;49.204;8.140;2023-04-03T10:24:25;1.77;;;0.90;;
73575;SDS011;61859;49.204;8.140;2023-04-03T10:27:00;1.40;;;0.97;;
73575;SDS011;61859;49.204;8.140;2023-04-03T10:32:53;2.43;;;0.90;;
73575;SDS011;61859;49.204;8.140;2023-04-03T10:38:37;1.87;;;1.10;;
73575;SDS011;61859;49.204;8.140;2023-04-03T10:41:11;2.03;;;1.10;;
73575;SDS011;61859;49.204;8.140;2023-04-03T10:46:23;2.23;;;1.30;;
73575;SDS011;61859;49.204;8.140;2023-04-03T10:49:04;2.40;;;0.97;;
73575;SDS011;61859;49.204;8.140;2023-04-03T10:51:55;1.63;;;1.13;;
73575;SDS011;61859;49.204;8.140;2023-04-03T10:54:35;1.10;;;0.60;;
73575;SDS011;61859;49.204;8.140;2023-04-03T10:57:05;2.60;;;0.93;;
73575;SDS011;61859;49.204;8.140;2023-04-03T10:59:47;0.97;;;0.87;;
73575;SDS011;61859;49.204;8.140;2023-04-03T11:02:23;2.13;;;0.70;;
73575;SDS011;61859;49.204;8.140;2023-04-03T11:05:06;1.67;;;0.90;;
73575;SDS011;61859;49.204;8.140;2023-04-03T11:07:39;1.23;;;0.93;;
73575;SDS011;61859;49.204;8.140;2023-04-03T11:10:17;1.30;;;0.77;;
73575;SDS011;61859;49.204;8.140;2023-04-03T11:12:56;3.80;;;1.03;;
73575;SDS011;61859;49.204;8.140;2023-04-03T11:15:31;1.70;;;1.00;;
73575;SDS011;61859;49.204;8.140;2023-04-03T11:17:59;1.40;;;0.70;;
73575;SDS011;61859;49.204;8.140;2023-04-03T11:20:31;0.80;;;0.60;;
73575;SDS011;61859;49.204;8.140;2023-04-03T11:25:50;1.07;;;0.90;;
73575;SDS011;61859;49.204;8.140;2023-04-03T11:28:19;4.67;;;0.60;;
73575;SDS011;61859;49.204;8.140;2023-04-03T11:30:49;2.20;;;0.80;;
73575;SDS011;61859;49.204;8.140;2023-04-03T11:36:28;0.80;;;0.80;;
73575;SDS011;61859;49.204;8.140;2023-04-03T11:38:58;2.87;;;1.00;;
73575;SDS011;61859;49.204;8.140;2023-04-03T11:41:30;2.07;;;0.80;;
73575;SDS011;61859;49.204;8.140;2023-04-03T11:44:01;2.20;;;0.90;;
73575;SDS011;61859;49.204;8.140;2023-04-03T11:55:35;1.20;;;0.80;;
73575;SDS011;61859;49.204;8.140;2023-04-03T11:58:02;2.47;;;0.80;;
73575;SDS011;61859;49.204;8.140;2023-04-03T12:00:53;1.57;;;0.60;;
73575;SDS011;61859;49.204;8.140;2023-04-03T12:13:36;2.37;;;1.57;;
73575;SDS011;61859;49.204;8.140;2023-04-03T12:16:06;1.03;;;0.70;;
73575;SDS011;61859;49.204;8.140;2023-04-03T12:23:58;1.00;;;0.90;;
73575;SDS011;61859;49.204;8.140;2023-04-03T12:26:31;2.47;;;1.23;;
73575;SDS011;61859;49.204;8.140;2023-04-03T12:40:10;3.63;;;1.83;;
73575;SDS011;61859;49.204;8.140;2023-04-03T12:42:56;2.60;;;1.70;;
73575;SDS011;61859;49.204;8.140;2023-04-03T12:45:46;2.87;;;2.33;;
73575;SDS011;61859;49.204;8.140;2023-04-03T12:48:28;1.40;;;1.27;;
73575;SDS011;61859;49.204;8.140;2023-04-03T12:50:56;2.13;;;1.33;;
73575;SDS011;61859;49.204;8.140;2023-04-03T12:53:33;1.90;;;1.80;;
73575;SDS011;61859;49.204;8.140;2023-04-03T12:56:19;5.97;;;4.87;;
73575;SDS011;61859;49.204;8.140;2023-04-03T12:58:49;4.97;;;4.00;;
73575;SDS011;61859;49.204;8.140;2023-04-03T13:01:17;26.80;;;14.77;;
73575;SDS011;61859;49.204;8.140;2023-04-03T13:03:48;20.83;;;10.97;;
73575;SDS011;61859;49.204;8.140;2023-04-03T13:06:19;24.27;;;12.97;;
73575;SDS011;61859;49.204;8.140;2023-04-03T13:08:56;4.30;;;2.77;;
73575;SDS011;61859;49.204;8.140;2023-04-03T13:11:25;7.30;;;3.93;;
73575;SDS011;61859;49.204;8.140;2023-04-03T13:13:58;26.50;;;12.97;;
73575;SDS011;61859;49.204;8.140;2023-04-03T13:16:30;8.27;;;3.60;;
73575;SDS011;61859;49.204;8.140;2023-04-03T13:18:57;1.73;;;1.10;;
73575;SDS011;61859;49.204;8.140;2023-04-03T13:21:27;2.07;;;1.77;;
73575;SDS011;61859;49.204;8.140;2023-04-03T13:23:58;1.40;;;1.30;;
73575;SDS011;61859;49.204;8.140;2023-04-03T13:26:28;2.53;;;0.93;;
73575;SDS011;61859;49.204;8.140;2023-04-03T13:28:57;1.17;;;0.97;;
73575;SDS011;61859;49.204;8.140;2023-04-03T13:31:26;1.80;;;0.90;;
73575;SDS011;61859;49.204;8.140;2023-04-03T13:36:27;1.47;;;1.00;;
73575;SDS011;61859;49.204;8.140;2023-04-03T13:41:40;1.07;;;0.90;;
73575;SDS011;61859;49.204;8.140;2023-04-03T13:46:46;1.00;;;0.90;;
73575;SDS011;61859;49.204;8.140;2023-04-03T13:49:34;1.47;;;1.30;;
73575;SDS011;61859;49.204;8.140;2023-04-03T13:57:55;2.10;;;1.53;;
73575;SDS011;61859;49.204;8.140;2023-04-03T14:00:48;3.57;;;1.20;;
73575;SDS011;61859;49.204;8.140;2023-04-03T14:03:21;1.40;;;0.80;;
73575;SDS011;61859;49.204;8.140;2023-04-03T14:05:51;1.73;;;0.83;;
73575;SDS011;61859;49.204;8.140;2023-04-03T14:08:17;2.90;;;0.90;;
73575;SDS011;61859;49.204;8.140;2023-04-03T14:10:44;1.37;;;0.70;;
73575;SDS011;61859;49.204;8.140;2023-04-03T14:13:11;2.13;;;1.00;;
73575;SDS011;61859;49.204;8.140;2023-04-03T14:15:39;4.30;;;0.90;;
73575;SDS011;61859;49.204;8.140;2023-04-03T14:18:06;1.43;;;0.90;;
73575;SDS011;61859;49.204;8.140;2023-04-03T14:20:31;3.70;;;0.60;;
73575;SDS011;61859;49.204;8.140;2023-04-03T14:22:57;0.83;;;0.70;;
73575;SDS011;61859;49.204;8.140;2023-04-03T14:25:23;1.13;;;0.90;;
73575;SDS011;61859;49.204;8.140;2023-04-03T14:27:49;1.30;;;0.90;;
73575;SDS011;61859;49.204;8.140;2023-04-03T14:30:18;2.13;;;0.90;;
73575;SDS011;61859;49.204;8.140;2023-04-03T14:32:47;1.08;;;0.90;;
73575;SDS011;61859;49.204;8.140;2023-04-03T14:35:14;1.02;;;0.98;;
73575;SDS011;61859;49.204;8.140;2023-04-03T14:37:40;1.17;;;0.90;;
73575;SDS011;61859;49.204;8.140;2023-04-03T14:40:07;1.35;;;1.00;;
73575;SDS011;61859;49.204;8.140;2023-04-03T14:42:37;0.85;;;0.70;;
73575;SDS011;61859;49.204;8.140;2023-04-03T14:45:07;1.63;;;1.15;;
73575;SDS011;61859;49.204;8.140;2023-04-03T14:47:34;1.20;;;1.10;;
73575;SDS011;61859;49.204;8.140;2023-04-03T14:50:18;1.27;;;0.80;;
73575;SDS011;61859;49.204;8.140;2023-04-03T14:52:47;1.63;;;0.90;;
73575;SDS011;61859;49.204;8.140;2023-04-03T14:55:15;1.35;;;0.85;;
73575;SDS011;61859;49.204;8.140;2023-04-03T14:57:42;2.83;;;1.00;;
73575;SDS011;61859;49.204;8.140;2023-04-03T15:00:11;2.03;;;0.88;;
73575;SDS011;61859;49.204;8.140;2023-04-03T15:02:39;0.98;;;0.90;;
73575;SDS011;61859;49.204;8.140;2023-04-03T15:05:07;3.63;;;1.10;;
73575;SDS011;61859;49.204;8.140;2023-04-03T15:07:35;1.67;;;1.30;;
73575;SDS011;61859;49.204;8.140;2023-04-03T15:12:39;5.22;;;0.90;;
73575;SDS011;61859;49.204;8.140;2023-04-03T15:15:06;0.98;;;0.88;;
73575;SDS011;61859;49.204;8.140;2023-04-03T15:17:32;1.00;;;0.90;;
73575;SDS011;61859;49.204;8.140;2023-04-03T15:19:59;0.70;;;0.70;;
73575;SDS011;61859;49.204;8.140;2023-04-03T15:22:25;3.97;;;1.40;;
73575;SDS011;61859;49.204;8.140;2023-04-03T15:24:50;4.40;;;1.30;;
73575;SDS011;61859;49.204;8.140;2023-04-03T15:27:16;1.17;;;0.70;;
73575;SDS011;61859;49.204;8.140;2023-04-03T15:29:42;1.48;;;0.88;;
73575;SDS011;61859;49.204;8.140;2023-04-03T15:32:09;1.65;;;0.93;;
73575;SDS011;61859;49.204;8.140;2023-04-03T15:34:35;3.00;;;1.00;;
73575;SDS011;61859;49.204;8.140;2023-04-03T15:37:01;2.40;;;0.88;;
73575;SDS011;61859;49.204;8.140;2023-04-03T15:39:27;0.80;;;0.80;;
73575;SDS011;61859;49.204;8.140;2023-04-03T15:41:53;3.45;;;1.27;;
73575;SDS011;61859;49.204;8.140;2023-04-03T15:44:19;1.90;;;1.00;;
73575;SDS011;61859;49.204;8.140;2023-04-03T15:46:45;2.40;;;1.37;;
73575;SDS011;61859;49.204;8.140;2023-04-03T15:49:12;1.00;;;0.90;;
73575;SDS011;61859;49.204;8.140;2023-04-03T15:51:37;0.97;;;0.87;;
73575;SDS011;61859;49.204;8.140;2023-04-03T15:54:03;2.30;;;1.20;;
73575;SDS011;61859;49.204;8.140;2023-04-03T15:56:29;1.70;;;1.07;;
73575;SDS011;61859;49.204;8.140;2023-04-03T15:58:54;1.80;;;0.87;;
73575;SDS011;61859;49.204;8.140;2023-04-03T16:01:20;3.72;;;1.10;;
73575;SDS011;61859;49.204;8.140;2023-04-03T16:03:46;0.88;;;0.88;;
73575;SDS011;61859;49.204;8.140;2023-04-03T16:06:18;0.93;;;0.90;;
73575;SDS011;61859;49.204;8.140;2023-04-03T16:08:44;1.15;;;0.80;;
73575;SDS011;61859;49.204;8.140;2023-04-03T16:11:11;1.85;;;1.20;;
73575;SDS011;61859;49.204;8.140;2023-04-03T16:13:36;2.40;;;0.90;;
73575;SDS011;61859;49.204;8.140;2023-04-03T16:16:02;0.98;;;0.90;;
73575;SDS011;61859;49.204;8.140;2023-04-03T16:18:29;1.10;;;0.82;;
73575;SDS011;61859;49.204;8.140;2023-04-03T16:20:54;1.75;;;1.23;;
73575;SDS011;61859;49.204;8.140;2023-04-03T16:23:20;0.80;;;0.63;;
73575;SDS011;61859;49.204;8.140;2023-04-03T16:25:46;1.25;;;0.93;;
73575;SDS011;61859;49.204;8.140;2023-04-03T16:28:13;1.35;;;1.00;;
73575;SDS011;61859;49.204;8.140;2023-04-03T16:30:42;1.95;;;1.15;;
73575;SDS011;61859;49.204;8.140;2023-04-03T16:33:09;1.73;;;0.95;;
73575;SDS011;61859;49.204;8.140;2023-04-03T16:35:35;1.10;;;1.00;;
73575;SDS011;61859;49.204;8.140;2023-04-03T16:38:01;1.80;;;1.07;;